Time;durP1;ratioP1;P1;durP2;ratioP2;P2;SDS_P1;SDS_P2;PMS_P1;PMS_P2;Temp;Humidity;BMP_temperature;BMP_pressure;BME280_temperature;BME280_humidity;BME280_pressure;Samples;Min_cycle;Max_cycle;Signal;HPM_P1;HPM_P2
2022/04/14 00:01:39;;;;;;;11.53;6.83;;;;;;;7.01;100.00;96376.91;4860488;29;20540;-76
2022/04/14 00:04:06;;;;;;;12.47;7.40;;;;;;;7.01;100.00;96397.94;4856962;29;20469;-76
2022/04/14 00:06:33;;;;;;;8.83;7.13;;;;;;;6.81;100.00;96388.69;4851867;29;20497;-76
2022/04/14 00:09:00;;;;;;;10.97;7.17;;;;;;;7.21;100.00;96454.47;4844833;29;20552;-76
2022/04/14 00:11:26;;;;;;;11.30;7.93;;;;;;;7.00;100.00;96406.91;4861501;29;20475;-76
2022/04/14 00:13:53;;;;;;;14.30;6.63;;;;;;;7.08;100.00;96437.72;4859699;29;20540;-76
2022/04/14 00:16:20;;;;;;;8.43;6.57;;;;;;;6.89;100.00;96405.59;4844903;29;20444;-76
2022/04/14 00:18:47;;;;;;;9.43;8.20;;;;;;;7.08;100.00;96435.09;4860676;29;20551;-75
2022/04/14 00:21:14;;;;;;;12.10;6.17;;;;;;;6.79;100.00;96386.34;4860000;29;20499;-76
2022/04/14 00:23:40;;;;;;;9.50;7.30;;;;;;;7.06;100.00;96432.75;4859545;29;20534;-76
2022/04/14 00:26:07;;;;;;;14.00;7.87;;;;;;;6.49;100.00;96372.09;4859895;29;20484;-76
2022/04/14 00:28:34;;;;;;;7.27;6.60;;;;;;;6.64;100.00;96409.59;4842477;29;20536;-75
2022/04/14 00:31:03;;;;;;;7.20;6.50;;;;;;;6.56;100.00;96415.56;4853256;29;20440;-76
2022/04/14 00:33:31;;;;;;;8.70;7.00;;;;;;;6.39;100.00;96424.06;4859293;29;20464;-76
2022/04/14 00:35:58;;;;;;;10.63;7.10;;;;;;;6.27;100.00;96394.94;4860859;29;20441;-76
2022/04/14 00:38:25;;;;;;;8.83;6.43;;;;;;;6.16;100.00;96397.03;4859279;29;20465;-76
2022/04/14 00:40:55;;;;;;;20.40;6.50;;;;;;;6.12;100.00;96377.66;4844062;29;20556;-76
2022/04/14 00:43:32;;;;;;;13.13;7.10;;;;;;;6.23;100.00;96418.38;4860699;29;20493;-76
2022/04/14 00:45:59;;;;;;;7.40;6.70;;;;;;;5.90;100.00;96349.56;4859445;29;20467;-76
2022/04/14 00:48:28;;;;;;;8.53;7.10;;;;;;;5.92;100.00;96387.53;4860955;29;20500;-76
2022/04/14 00:50:55;;;;;;;8.47;6.70;;;;;;;6.08;100.00;96372.25;4831670;29;20493;-76
2022/04/14 00:53:23;;;;;;;7.87;7.20;;;;;;;6.32;100.00;96395.59;4860690;29;20441;-76
2022/04/14 00:55:51;;;;;;;10.30;6.93;;;;;;;6.52;100.00;96418.00;4859604;29;20444;-76
2022/04/14 00:58:18;;;;;;;9.53;7.80;;;;;;;6.30;100.00;96387.25;4860123;29;20926;-76
2022/04/14 01:00:45;;;;;;;9.10;7.70;;;;;;;6.67;100.00;96419.50;4859358;29;20440;-76
2022/04/14 01:03:12;;;;;;;8.50;7.43;;;;;;;6.21;100.00;96384.56;4853798;29;20461;-76
2022/04/14 01:05:39;;;;;;;9.03;7.00;;;;;;;6.11;100.00;96387.38;4870592;29;20444;-76
2022/04/14 01:08:06;;;;;;;10.60;7.37;;;;;;;6.03;100.00;96390.72;4851312;29;20469;-76
2022/04/14 01:10:34;;;;;;;11.60;7.10;;;;;;;6.03;100.00;96382.84;4856233;29;20614;-76
2022/04/14 01:13:02;;;;;;;14.50;9.40;;;;;;;6.04;100.00;96394.13;4860138;29;20440;-76
2022/04/14 01:15:29;;;;;;;12.77;8.27;;;;;;;6.34;100.00;96417.09;4843241;29;20453;-76
2022/04/14 01:17:56;;;;;;;13.00;7.43;;;;;;;5.96;100.00;96407.94;4859808;29;20447;-76
2022/04/14 01:20:23;;;;;;;13.50;7.40;;;;;;;6.12;100.00;96430.16;4858633;29;20477;-76
2022/04/14 01:22:59;;;;;;;19.43;8.30;;;;;;;5.99;100.00;96423.09;4860038;29;20483;-76
2022/04/14 01:25:26;;;;;;;7.90;6.33;;;;;;;5.89;100.00;96392.56;4843559;29;20452;-76
2022/04/14 01:27:53;;;;;;;8.97;8.17;;;;;;;6.01;100.00;96418.31;4858511;29;20532;-76
2022/04/14 01:30:21;;;;;;;12.80;8.20;;;;;;;5.95;100.00;96406.38;4859493;29;21071;-76
2022/04/14 01:32:48;;;;;;;7.73;7.00;;;;;;;5.91;100.00;96380.75;4859550;29;20497;-76
2022/04/14 01:35:17;;;;;;;12.47;6.90;;;;;;;6.13;100.00;96422.00;4843854;29;20441;-76
2022/04/14 01:37:43;;;;;;;15.00;8.63;;;;;;;6.17;100.00;96424.81;4860184;29;20443;-76
2022/04/14 01:40:10;;;;;;;15.73;7.30;;;;;;;5.61;100.00;96370.84;4843926;29;20564;-77
2022/04/14 01:42:38;;;;;;;14.77;6.80;;;;;;;5.78;100.00;96407.75;4863864;29;21004;-75
2022/04/14 01:45:10;;;;;;;13.23;7.60;;;;;;;5.60;100.00;96390.25;4866604;29;20456;-76
2022/04/14 01:47:44;;;;;;;11.43;7.17;;;;;;;6.03;100.00;96430.09;4859887;29;20437;-76
2022/04/14 01:50:13;;;;;;;10.43;8.00;;;;;;;5.89;100.00;96401.22;4862067;29;20981;-76
2022/04/14 01:52:41;;;;;;;10.77;6.50;;;;;;;5.87;100.00;96424.31;4859588;29;20444;-76
2022/04/14 01:55:08;;;;;;;12.93;8.63;;;;;;;5.48;100.00;96379.50;4858480;29;20436;-76
2022/04/14 01:57:35;;;;;;;14.33;7.53;;;;;;;5.37;100.00;96363.16;4858636;29;20463;-76
2022/04/14 02:00:05;;;;;;;11.10;7.10;;;;;;;5.49;100.00;96402.03;4859225;29;20466;-76
2022/04/14 02:02:31;;;;;;;8.93;7.47;;;;;;;5.53;100.00;96395.88;4859424;29;20446;-76
2022/04/14 02:04:58;;;;;;;9.20;7.93;;;;;;;5.63;100.00;96403.56;4842670;29;20475;-76
2022/04/14 02:07:25;;;;;;;9.77;7.40;;;;;;;5.28;100.00;96339.47;4855219;29;20529;-76
2022/04/14 02:09:52;;;;;;;17.20;8.07;;;;;;;5.55;100.00;96395.59;4849648;29;20524;-76
2022/04/14 02:12:18;;;;;;;13.83;7.27;;;;;;;5.49;100.00;96394.16;4872678;29;20535;-76
2022/04/14 02:14:45;;;;;;;6.80;6.17;;;;;;;5.33;100.00;96406.75;4857703;29;20455;-76
2022/04/14 02:17:11;;;;;;;12.70;6.83;;;;;;;5.12;100.00;96384.59;4842368;29;20547;-76
2022/04/14 02:19:38;;;;;;;8.63;7.50;;;;;;;5.42;100.00;96422.59;4873121;29;20476;-76
2022/04/14 02:22:05;;;;;;;12.23;7.20;;;;;;;5.56;100.00;96437.25;4863491;29;20834;-76
2022/04/14 02:24:31;;;;;;;8.70;6.80;;;;;;;5.39;100.00;96423.16;4842667;29;20452;-76
2022/04/14 02:26:58;;;;;;;8.83;6.80;;;;;;;5.38;100.00;96426.88;4858167;29;20562;-76
2022/04/14 02:29:25;;;;;;;9.00;6.87;;;;;;;5.12;100.00;96414.19;4873271;29;20487;-76
2022/04/14 02:31:55;;;;;;;7.73;6.93;;;;;;;4.75;100.00;96394.13;4860148;29;20454;-76
2022/04/14 02:34:22;;;;;;;10.30;7.97;;;;;;;4.83;100.00;96396.09;4872457;29;20529;-76
2022/04/14 02:36:48;;;;;;;8.43;7.47;;;;;;;4.89;100.00;96388.91;4867193;29;20475;-76
2022/04/14 02:39:15;;;;;;;9.53;7.60;;;;;;;4.80;100.00;96369.69;4858161;29;20555;-76
2022/04/14 02:41:41;;;;;;;9.30;7.50;;;;;;;5.17;100.00;96424.59;4857994;29;21043;-76
2022/04/14 02:44:08;;;;;;;9.27;7.50;;;;;;;5.11;100.00;96407.41;4857758;29;20531;-76
2022/04/14 02:46:35;;;;;;;8.47;7.67;;;;;;;4.90;100.00;96399.09;4857280;29;20796;-76
2022/04/14 02:49:01;;;;;;;8.20;7.53;;;;;;;5.23;100.00;96441.78;4858010;29;20482;-76
2022/04/14 02:51:28;;;;;;;9.00;7.20;;;;;;;5.04;100.00;96448.91;4858843;29;20991;-76
2022/04/14 02:53:55;;;;;;;10.00;8.60;;;;;;;4.37;100.00;96331.34;4857649;29;20448;-76
2022/04/14 02:56:21;;;;;;;9.20;8.40;;;;;;;5.01;100.00;96441.63;4857330;29;20539;-76
2022/04/14 02:58:48;;;;;;;9.00;8.10;;;;;;;4.85;100.00;96409.69;4857137;29;20472;-76
2022/04/14 03:01:15;;;;;;;9.20;8.30;;;;;;;4.87;100.00;96404.16;4857449;29;20504;-76
2022/04/14 03:03:41;;;;;;;8.20;7.50;;;;;;;5.28;100.00;96454.03;4857164;29;20455;-76
2022/04/14 03:06:08;;;;;;;8.70;7.90;;;;;;;4.95;100.00;96395.63;4857529;29;20440;-76
2022/04/14 03:08:35;;;;;;;12.00;8.20;;;;;;;4.94;100.00;96399.28;4857287;29;20973;-76
2022/04/14 03:11:01;;;;;;;8.13;6.93;;;;;;;5.37;100.00;96446.28;4841887;29;20523;-76
2022/04/14 03:13:28;;;;;;;10.33;6.63;;;;;;;4.85;100.00;96406.28;4858512;29;20531;-76
2022/04/14 03:15:55;;;;;;;8.90;6.60;;;;;;;4.72;100.00;96415.66;4842083;29;20451;-76
2022/04/14 03:18:21;;;;;;;8.27;7.60;;;;;;;4.61;100.00;96443.06;4857383;29;20552;-76
2022/04/14 03:20:48;;;;;;;7.97;7.30;;;;;;;4.65;100.00;96410.00;4858548;29;20435;-76
2022/04/14 03:23:15;;;;;;;9.20;7.80;;;;;;;4.74;100.00;96403.81;4858869;29;20527;-76
2022/04/14 03:25:43;;;;;;;8.50;7.63;;;;;;;4.83;100.00;96418.88;4860121;29;20455;-76
2022/04/14 03:28:10;;;;;;;9.93;7.87;;;;;;;4.69;100.00;96397.91;4864956;29;20535;-76
2022/04/14 03:30:36;;;;;;;9.13;8.17;;;;;;;4.86;100.00;96385.03;4860695;29;20512;-76
2022/04/14 03:33:03;;;;;;;8.10;7.30;;;;;;;5.19;100.00;96435.56;4860638;29;20539;-76
2022/04/14 03:35:30;;;;;;;9.63;7.73;;;;;;;4.81;100.00;96428.84;4860775;29;20495;-76
2022/04/14 03:37:57;;;;;;;8.40;7.50;;;;;;;4.69;100.00;96426.69;4860841;29;20448;-76
2022/04/14 03:40:23;;;;;;;8.60;7.47;;;;;;;4.39;100.00;96396.50;4862148;29;20459;-76
2022/04/14 03:42:50;;;;;;;9.53;8.50;;;;;;;4.31;100.00;96379.63;4860865;29;20432;-76
2022/04/14 03:45:16;;;;;;;8.73;6.83;;;;;;;4.48;100.00;96414.97;4862168;29;20442;-76
2022/04/14 03:47:43;;;;;;;8.73;7.83;;;;;;;4.43;100.00;96410.59;4845208;29;20461;-76
2022/04/14 03:50:10;;;;;;;12.80;7.63;;;;;;;4.47;100.00;96422.03;4863578;29;20485;-76
2022/04/14 03:52:36;;;;;;;13.40;8.30;;;;;;;4.49;100.00;96408.66;4863615;29;20433;-76
2022/04/14 03:55:04;;;;;;;10.60;8.00;;;;;;;4.04;100.00;96401.19;4860264;29;20463;-76
2022/04/14 03:57:30;;;;;;;12.53;7.43;;;;;;;4.15;100.00;96428.00;4863408;29;20459;-76
2022/04/14 03:59:57;;;;;;;8.07;6.23;;;;;;;3.96;100.00;96393.19;4859968;29;20475;-76
2022/04/14 04:02:23;;;;;;;13.20;8.17;;;;;;;3.89;100.00;96404.00;4860295;29;20452;-76
2022/04/14 04:04:51;;;;;;;13.03;8.23;;;;;;;3.89;100.00;96403.22;4860050;29;20460;-76
2022/04/14 04:07:18;;;;;;;12.30;8.07;;;;;;;3.90;100.00;96391.69;4861148;29;20512;-76
2022/04/14 04:09:44;;;;;;;15.53;10.10;;;;;;;3.96;100.00;96388.72;4861167;29;20495;-76
2022/04/14 04:12:11;;;;;;;23.47;13.47;;;;;;;3.99;100.00;96388.16;4859776;29;20545;-76
2022/04/14 04:14:37;;;;;;;22.47;14.30;;;;;;;4.17;100.00;96423.25;4865154;29;20908;-76
2022/04/14 04:17:04;;;;;;;25.40;15.63;;;;;;;4.26;100.00;96420.75;4861195;29;20517;-76
2022/04/14 04:19:32;;;;;;;22.20;13.03;;;;;;;4.33;100.00;96421.97;4859623;29;20520;-76
2022/04/14 04:21:58;;;;;;;16.73;11.90;;;;;;;4.28;100.00;96397.72;4861092;29;20490;-76
2022/04/14 04:24:25;;;;;;;16.80;12.80;;;;;;;4.41;100.00;96428.44;4859529;29;20453;-76
2022/04/14 04:26:52;;;;;;;10.53;9.43;;;;;;;4.55;100.00;96463.31;4861242;29;20520;-76
2022/04/14 04:29:19;;;;;;;11.60;10.03;;;;;;;4.19;100.00;96396.81;4859640;29;20480;-76
2022/04/14 04:31:45;;;;;;;11.33;8.40;;;;;;;4.45;100.00;96443.28;4843079;29;20508;-76
2022/04/14 04:34:13;;;;;;;10.13;9.23;;;;;;;4.67;100.00;96463.66;4856301;29;20444;-76
2022/04/14 04:36:40;;;;;;;10.97;9.30;;;;;;;4.50;100.00;96421.47;4855944;29;20446;-76
2022/04/14 04:39:06;;;;;;;12.17;8.70;;;;;;;4.77;100.00;96469.78;4851222;29;20460;-76
2022/04/14 04:41:33;;;;;;;16.63;7.87;;;;;;;4.53;100.00;96435.81;4856400;29;20532;-76
2022/04/14 04:44:00;;;;;;;13.23;8.13;;;;;;;4.30;100.00;96440.09;4845155;29;20461;-76
2022/04/14 04:46:26;;;;;;;9.90;7.97;;;;;;;4.22;100.00;96445.94;4859143;29;20480;-76
2022/04/14 04:48:53;;;;;;;11.80;8.13;;;;;;;4.53;100.00;96488.97;4859156;29;20589;-76
2022/04/14 04:51:20;;;;;;;8.20;7.40;;;;;;;3.93;100.00;96383.28;4860510;29;20444;-76
2022/04/14 04:53:46;;;;;;;11.40;8.97;;;;;;;4.64;100.00;96485.16;4860547;29;20435;-76
2022/04/14 04:56:13;;;;;;;10.60;9.60;;;;;;;4.62;100.00;96479.41;4860782;29;20548;-76
2022/04/14 04:58:40;;;;;;;11.07;9.70;;;;;;;4.69;100.00;96484.31;4860316;29;20484;-76
2022/04/14 05:01:07;;;;;;;25.87;10.10;;;;;;;4.38;100.00;96470.84;4843779;29;21124;-76
2022/04/14 05:03:33;;;;;;;12.90;10.40;;;;;;;4.53;100.00;96481.09;4859271;29;20975;-76
2022/04/14 05:06:00;;;;;;;15.67;12.53;;;;;;;4.75;100.00;96470.84;4860264;29;20531;-76
2022/04/14 05:08:27;;;;;;;21.70;13.03;;;;;;;4.49;100.00;96427.00;4847990;29;20790;-76
2022/04/14 05:11:00;;;;;;;19.30;15.90;;;;;;;4.49;100.00;96430.38;4849361;29;20462;-76
2022/04/14 05:13:26;;;;;;;23.40;15.77;;;;;;;4.76;100.00;96424.47;4858780;29;20452;-76
2022/04/14 05:15:53;;;;;;;18.00;15.07;;;;;;;5.08;100.00;96476.13;4858778;29;20462;-76
2022/04/14 05:18:20;;;;;;;14.43;12.90;;;;;;;5.05;100.00;96464.34;4858656;29;20546;-76
2022/04/14 05:20:47;;;;;;;14.00;11.00;;;;;;;5.26;100.00;96475.28;4858632;29;20455;-76
2022/04/14 05:23:14;;;;;;;18.07;14.60;;;;;;;5.20;100.00;96462.53;4859695;29;20883;-76
2022/04/14 05:25:41;;;;;;;18.87;16.83;;;;;;;5.56;100.00;96487.09;4859086;29;20618;-76
2022/04/14 05:28:07;;;;;;;13.00;11.27;;;;;;;5.64;100.00;96456.81;4860593;29;21020;-76
2022/04/14 05:30:34;;;;;;;16.90;12.60;;;;;;;5.71;100.00;96451.16;4860784;29;20515;-76
2022/04/14 05:33:01;;;;;;;21.03;14.20;;;;;;;5.99;100.00;96472.94;4859980;29;21083;-76
2022/04/14 05:35:28;;;;;;;19.27;10.93;;;;;;;6.27;100.00;96487.59;4859882;29;20432;-76
2022/04/14 05:37:55;;;;;;;11.50;9.80;;;;;;;6.40;100.00;96502.56;4858412;29;20557;-76
2022/04/14 05:40:21;;;;;;;11.20;9.90;;;;;;;6.48;100.00;96506.34;4859748;29;20458;-76
2022/04/14 05:42:51;;;;;;;10.13;9.07;;;;;;;6.53;100.00;96519.34;4846029;29;20535;-76
2022/04/14 05:45:19;;;;;;;14.67;10.30;;;;;;;6.38;100.00;96485.53;4860870;29;20452;-76
2022/04/14 05:47:46;;;;;;;12.20;10.90;;;;;;;6.21;100.00;96475.66;4857704;29;20462;-76
2022/04/14 05:50:12;;;;;;;13.13;11.77;;;;;;;6.13;100.00;96457.97;4857962;29;20548;-76
2022/04/14 05:52:39;;;;;;;12.73;11.43;;;;;;;6.39;100.00;96487.88;4859484;29;20478;-76
2022/04/14 05:55:06;;;;;;;13.30;12.00;;;;;;;6.22;100.00;96470.09;4858608;29;20475;-76
2022/04/14 05:57:33;;;;;;;13.43;11.90;;;;;;;6.58;100.00;96516.63;4859516;29;20452;-76
2022/04/14 06:00:00;;;;;;;12.40;11.07;;;;;;;6.63;100.00;96486.84;4846703;29;20989;-76
2022/04/14 06:02:29;;;;;;;12.20;11.00;;;;;;;6.70;100.00;96508.25;4860330;29;20519;-76
2022/04/14 06:04:56;;;;;;;12.77;11.47;;;;;;;6.86;100.00;96514.72;4858325;29;20536;-76
2022/04/14 06:07:23;;;;;;;18.77;13.57;;;;;;;6.89;100.00;96514.13;4857949;29;20544;-76
2022/04/14 06:09:49;;;;;;;17.57;12.50;;;;;;;6.95;100.00;96527.94;4858027;29;20479;-76
2022/04/14 06:12:16;;;;;;;13.67;11.80;;;;;;;6.94;100.00;96515.84;4842963;29;20515;-76
2022/04/14 06:14:50;;;;;;;15.60;11.73;;;;;;;6.96;100.00;96496.09;4844056;29;20468;-76
2022/04/14 06:17:17;;;;;;;13.93;11.90;;;;;;;6.79;100.00;96432.88;4858524;29;20809;-76
2022/04/14 06:19:44;;;;;;;13.10;11.80;;;;;;;7.62;100.00;96518.16;4858270;29;20492;-75
2022/04/14 06:22:11;;;;;;;18.33;11.50;;;;;;;7.63;100.00;96464.47;4859257;29;20473;-76
2022/04/14 06:24:37;;;;;;;13.43;12.13;;;;;;;8.07;100.00;96490.94;4858976;29;20580;-76
2022/04/14 06:27:05;;;;;;;14.53;13.00;;;;;;;8.00;100.00;96480.84;4860676;29;20444;-76
2022/04/14 06:29:32;;;;;;;18.33;16.20;;;;;;;8.48;100.00;96536.16;4858462;29;20472;-76
2022/04/14 06:31:59;;;;;;;13.07;11.63;;;;;;;8.56;100.00;96532.00;4862617;29;20487;-76
2022/04/14 06:34:25;;;;;;;14.60;12.50;;;;;;;8.08;100.00;96469.56;4867479;29;20952;-76
2022/04/14 06:36:52;;;;;;;15.27;12.70;;;;;;;8.77;100.00;96524.25;4843220;29;20457;-76
2022/04/14 06:39:19;;;;;;;14.63;12.57;;;;;;;9.07;100.00;96538.38;4854026;29;20560;-76
2022/04/14 06:41:45;;;;;;;17.50;12.77;;;;;;;8.82;100.00;96517.00;4858663;29;20544;-76
2022/04/14 06:44:12;;;;;;;15.30;12.30;;;;;;;8.91;100.00;96524.88;4873249;29;20437;-76
2022/04/14 06:46:39;;;;;;;22.53;13.20;;;;;;;9.33;100.00;96533.84;4858073;29;20529;-76
2022/04/14 06:49:06;;;;;;;16.13;12.63;;;;;;;9.28;100.00;96509.50;4842875;29;20520;-76
2022/04/14 06:51:33;;;;;;;17.93;13.57;;;;;;;9.60;100.00;96543.28;4858257;29;20822;-76
2022/04/14 06:54:00;;;;;;;20.93;13.90;;;;;;;9.70;100.00;96507.84;4857863;29;20488;-76
2022/04/14 06:56:26;;;;;;;15.73;13.93;;;;;;;9.96;100.00;96542.88;4842825;29;20481;-76
2022/04/14 06:58:53;;;;;;;14.70;12.90;;;;;;;9.73;100.00;96520.41;4859805;29;20548;-76
2022/04/14 07:01:19;;;;;;;18.93;13.10;;;;;;;10.22;100.00;96553.38;4863314;29;20826;-76
2022/04/14 07:03:46;;;;;;;17.80;13.80;;;;;;;10.63;100.00;96547.41;4862060;29;20874;-76
2022/04/14 07:06:13;;;;;;;17.00;14.13;;;;;;;10.83;100.00;96547.75;4863866;29;20595;-77
2022/04/14 07:08:40;;;;;;;18.60;14.67;;;;;;;10.78;100.00;96530.19;4851228;29;20604;-76
2022/04/14 07:11:06;;;;;;;13.90;12.40;;;;;;;10.57;100.00;96518.84;4864117;29;20464;-76
2022/04/14 07:13:33;;;;;;;19.43;13.37;;;;;;;11.41;100.00;96564.59;4862754;29;20445;-76
2022/04/14 07:16:00;;;;;;;14.77;12.90;;;;;;;11.20;100.00;96516.94;4862858;29;20791;-76
2022/04/14 07:18:27;;;;;;;15.17;12.47;;;;;;;11.01;100.00;96506.84;4864628;29;20541;-76
2022/04/14 07:20:54;;;;;;;13.50;12.20;;;;;;;11.18;100.00;96545.63;4867769;29;20442;-76
2022/04/14 07:23:21;;;;;;;14.57;13.07;;;;;;;10.55;100.00;96500.66;4873834;29;20909;-76
2022/04/14 07:25:48;;;;;;;15.10;12.50;;;;;;;10.69;100.00;96523.44;4863466;29;20456;-76
2022/04/14 07:28:15;;;;;;;14.20;11.07;;;;;;;11.17;100.00;96541.44;4863187;29;20466;-76
2022/04/14 07:30:50;;;;;;;18.73;11.13;;;;;;;11.51;100.00;96559.66;4861280;29;20475;-76
2022/04/14 07:33:16;;;;;;;11.53;10.43;;;;;;;11.18;100.00;96503.28;4862141;29;20540;-76
2022/04/14 07:35:45;;;;;;;11.63;10.63;;;;;;;11.51;100.00;96548.31;4860741;29;20561;-76
2022/04/14 07:38:13;;;;;;;22.80;11.53;;;;;;;11.52;100.00;96533.97;4860951;29;20454;-76
2022/04/14 07:40:40;;;;;;;12.37;10.67;;;;;;;11.73;100.00;96563.03;4861972;29;20561;-76
2022/04/14 07:43:07;;;;;;;16.23;11.97;;;;;;;12.47;100.00;96524.91;4861768;29;20844;-76
2022/04/14 07:45:34;;;;;;;13.20;11.80;;;;;;;12.78;100.00;96510.28;4861355;29;21255;-76
2022/04/14 07:48:01;;;;;;;11.60;10.40;;;;;;;12.92;100.00;96551.25;4860557;29;20445;-76
2022/04/14 07:50:27;;;;;;;12.97;11.17;;;;;;;13.01;100.00;96541.31;4861971;29;20507;-76
2022/04/14 07:52:59;;;;;;;13.70;10.17;;;;;;;13.12;100.00;96564.72;4861597;29;20444;-76
2022/04/14 07:55:28;;;;;;;10.50;9.50;;;;;;;12.89;100.00;96562.56;4860333;29;20445;-76
2022/04/14 07:57:57;;;;;;;11.73;9.27;;;;;;;12.97;100.00;96561.66;4860311;29;20439;-76
2022/04/14 08:00:26;;;;;;;11.10;10.10;;;;;;;12.83;100.00;96569.22;4860195;29;20478;-76
2022/04/14 08:02:55;;;;;;;11.47;10.20;;;;;;;12.80;100.00;96532.72;4861670;29;20989;-76
2022/04/14 08:05:46;;;;;;;12.10;9.60;;;;;;;13.36;100.00;96566.56;4860480;29;20450;-76
2022/04/14 08:08:15;;;;;;;12.33;11.03;;;;;;;13.24;100.00;96564.72;4849880;29;20850;-76
2022/04/14 08:10:44;;;;;;;11.90;10.77;;;;;;;13.36;100.00;96564.69;4857432;29;20481;-76
2022/04/14 08:13:12;;;;;;;11.00;9.87;;;;;;;13.78;100.00;96567.69;4845199;29;20551;-76
2022/04/14 08:15:39;;;;;;;12.33;10.70;;;;;;;13.93;100.00;96576.03;4875558;29;20880;-76
2022/04/14 08:18:08;;;;;;;11.20;10.10;;;;;;;13.80;100.00;96570.00;4860183;29;20456;-76
2022/04/14 08:20:39;;;;;;;16.83;11.70;;;;;;;13.70;100.00;96573.94;4860143;29;20504;-76
2022/04/14 08:23:11;;;;;;;12.13;10.77;;;;;;;13.50;100.00;96538.50;4860080;29;20525;-76
2022/04/14 08:25:40;;;;;;;11.80;10.80;;;;;;;13.91;100.00;96552.47;4860224;29;20509;-76
2022/04/14 08:28:24;;;;;;;14.33;12.10;;;;;;;13.74;100.00;96558.84;4861278;29;20797;-76
2022/04/14 08:30:54;;;;;;;11.53;9.47;;;;;;;13.70;100.00;96568.63;4859863;29;20550;-76
2022/04/14 08:33:23;;;;;;;12.47;9.13;;;;;;;13.66;100.00;96588.25;4859540;29;20447;-76
2022/04/14 08:35:53;;;;;;;10.63;8.60;;;;;;;13.96;100.00;96585.97;4860893;29;20437;-76
2022/04/14 08:38:21;;;;;;;10.00;8.53;;;;;;;13.91;100.00;96560.44;4859481;29;20549;-76
2022/04/14 08:40:56;;;;;;;8.83;7.97;;;;;;;14.31;99.46;96584.22;4859630;29;20433;-76
2022/04/14 08:44:02;;;;;;;9.20;8.30;;;;;;;14.43;100.00;96565.50;4864695;29;20453;-76
2022/04/14 08:46:29;;;;;;;10.47;9.57;;;;;;;14.75;100.00;96586.78;4859464;29;20461;-77
2022/04/14 08:48:59;;;;;;;11.37;7.63;;;;;;;14.93;98.99;96589.81;4867236;29;20469;-76
2022/04/14 08:51:28;;;;;;;9.23;8.33;;;;;;;15.12;99.45;96595.19;4860944;29;20826;-77
2022/04/14 08:53:54;;;;;;;10.50;9.00;;;;;;;14.79;100.00;96577.75;4859829;29;20536;-76
2022/04/14 08:56:23;;;;;;;9.80;7.90;;;;;;;14.83;97.48;96598.38;4861660;29;20443;-76
2022/04/14 08:58:53;;;;;;;10.00;9.00;;;;;;;14.87;96.15;96586.66;4843563;29;20486;-76
2022/04/14 09:01:20;;;;;;;9.33;8.43;;;;;;;14.70;99.03;96571.84;4859839;29;20491;-76
2022/04/14 09:03:58;;;;;;;10.93;8.13;;;;;;;15.01;96.24;96599.50;4844496;29;20985;-76
2022/04/14 09:06:28;;;;;;;9.80;8.80;;;;;;;14.89;96.96;96595.06;4860807;29;20440;-76
2022/04/14 09:08:59;;;;;;;9.97;7.70;;;;;;;14.77;92.84;96574.66;4859625;29;20998;-76
2022/04/14 09:11:30;;;;;;;9.10;7.90;;;;;;;15.34;92.92;96605.16;4859485;29;20482;-75
2022/04/14 09:13:59;;;;;;;13.03;7.83;;;;;;;15.31;89.48;96597.88;4858767;29;20446;-76
2022/04/14 09:16:29;;;;;;;9.33;8.40;;;;;;;15.21;91.06;96560.34;4858292;29;20469;-75
2022/04/14 09:18:59;;;;;;;8.90;7.80;;;;;;;15.73;88.74;96580.41;4873795;29;20482;-76
2022/04/14 09:21:25;;;;;;;11.87;8.17;;;;;;;15.63;86.36;96600.44;4842064;29;20511;-76
2022/04/14 09:23:52;;;;;;;16.07;7.97;;;;;;;15.67;87.26;96590.59;4873666;29;20540;-76
2022/04/14 09:26:23;;;;;;;11.47;7.23;;;;;;;15.52;85.45;96560.22;4858346;29;20468;-76
2022/04/14 09:29:10;;;;;;;9.00;8.20;;;;;;;15.48;87.79;96599.34;4831883;29;20474;-76
2022/04/14 09:31:51;;;;;;;9.07;8.20;;;;;;;15.66;86.96;96608.50;4858250;29;20488;-76
2022/04/14 09:34:38;;;;;;;9.73;7.33;;;;;;;15.78;86.51;96606.81;4843116;29;20457;-76
2022/04/14 09:37:09;;;;;;;8.73;8.00;;;;;;;15.61;86.11;96600.00;4859784;29;20823;-76
2022/04/14 09:40:08;;;;;;;9.60;7.80;;;;;;;16.15;84.66;96612.41;4859488;29;20514;-76
2022/04/14 09:42:37;;;;;;;9.77;8.87;;;;;;;15.99;83.96;96591.19;4857150;29;20962;-76
2022/04/14 09:45:23;;;;;;;9.80;8.70;;;;;;;15.97;83.24;96612.09;4848031;29;20842;-76
2022/04/14 09:48:07;;;;;;;13.63;7.80;;;;;;;15.76;83.55;96601.84;4858299;29;20505;-76
2022/04/14 09:50:43;;;;;;;12.77;8.87;;;;;;;15.82;85.37;96604.97;4859536;29;20870;-76
2022/04/14 09:53:15;;;;;;;12.20;8.53;;;;;;;15.83;83.28;96606.50;4847644;29;20472;-76
2022/04/14 09:56:02;;;;;;;9.73;8.77;;;;;;;15.86;84.24;96598.56;4873600;29;20441;-76
2022/04/14 09:58:31;;;;;;;12.00;8.50;;;;;;;16.15;83.44;96596.41;4859608;29;20855;-76
2022/04/14 10:00:58;;;;;;;9.60;8.70;;;;;;;16.33;85.53;96602.81;4839652;29;20468;-76
2022/04/14 10:03:29;;;;;;;9.40;8.50;;;;;;;16.22;82.44;96596.53;4850427;29;20442;-76
2022/04/14 10:06:05;;;;;;;8.37;7.53;;;;;;;16.23;84.45;96590.84;4858680;29;20854;-76
2022/04/14 10:08:48;;;;;;;8.67;7.87;;;;;;;16.18;83.95;96591.16;4864046;29;20482;-76
2022/04/14 10:11:15;;;;;;;10.00;9.03;;;;;;;15.92;82.34;96564.41;4858046;29;20466;-76
2022/04/14 10:13:43;;;;;;;9.60;8.70;;;;;;;16.29;82.50;96601.22;4842469;29;20450;-76
2022/04/14 10:16:10;;;;;;;11.23;8.57;;;;;;;15.79;84.79;96502.47;4859281;29;20537;-76
2022/04/14 10:18:39;;;;;;;12.00;8.70;;;;;;;16.62;81.46;96593.38;4858393;29;20503;-76
2022/04/14 10:21:06;;;;;;;8.87;8.10;;;;;;;16.90;79.57;96568.22;4858398;29;20453;-76
2022/04/14 10:23:33;;;;;;;8.93;8.03;;;;;;;16.89;79.71;96570.13;4861544;29;20929;-78
2022/04/14 10:26:01;;;;;;;12.63;9.00;;;;;;;16.84;79.63;96587.25;4863192;29;20438;-78
2022/04/14 10:28:29;;;;;;;8.47;7.67;;;;;;;16.91;79.87;96605.25;4877409;29;20493;-77
2022/04/14 10:30:55;;;;;;;10.90;9.80;;;;;;;17.07;79.29;96587.16;4862326;29;20525;-77
2022/04/14 10:33:23;;;;;;;9.23;8.33;;;;;;;17.49;75.77;96598.75;4858604;29;20466;-77
2022/04/14 10:35:51;;;;;;;9.83;8.90;;;;;;;17.69;74.62;96597.50;4860399;29;20457;-78
2022/04/14 10:38:17;;;;;;;10.50;7.73;;;;;;;17.78;76.10;96599.91;4829776;29;20455;-78
2022/04/14 10:40:48;;;;;;;9.10;7.87;;;;;;;17.43;73.38;96582.28;4854418;29;20497;-78
2022/04/14 10:43:19;;;;;;;13.20;9.57;;;;;;;17.65;74.80;96535.16;4861544;29;20435;-78
2022/04/14 10:45:54;;;;;;;9.23;8.37;;;;;;;17.89;71.90;96600.75;4846049;29;20443;-78
2022/04/14 10:48:31;;;;;;;8.97;8.07;;;;;;;17.57;71.51;96606.50;4861947;29;20453;-78
2022/04/14 10:51:17;;;;;;;9.27;8.37;;;;;;;17.65;71.03;96599.34;4849046;29;20479;-77
2022/04/14 10:54:00;;;;;;;9.37;8.37;;;;;;;17.80;71.20;96597.63;4860505;29;20480;-77
2022/04/14 10:56:42;;;;;;;9.20;6.37;;;;;;;18.13;71.78;96600.25;4860227;29;20458;-78
2022/04/14 10:59:11;;;;;;;11.67;8.60;;;;;;;18.15;70.80;96594.50;4875225;29;20474;-77
2022/04/14 11:01:47;;;;;;;12.13;8.60;;;;;;;18.22;67.53;96600.72;4863632;29;20451;-77
2022/04/14 11:04:25;;;;;;;12.33;10.20;;;;;;;18.30;67.23;96596.22;4861843;29;20445;-78
2022/04/14 11:07:12;;;;;;;14.20;8.10;;;;;;;18.88;67.00;96598.97;4860466;29;20505;-77
2022/04/14 11:09:38;;;;;;;9.17;8.27;;;;;;;19.41;64.32;96600.41;4866031;29;20490;-77
2022/04/14 11:12:18;;;;;;;9.50;7.70;;;;;;;19.51;64.43;96590.88;4847697;29;20566;-77
2022/04/14 11:14:56;;;;;;;9.53;8.63;;;;;;;19.35;64.06;96594.59;4861375;29;20510;-77
2022/04/14 11:17:38;;;;;;;10.67;9.60;;;;;;;19.04;64.25;96587.19;4861522;29;20434;-78
2022/04/14 11:20:14;;;;;;;13.00;11.53;;;;;;;18.71;63.84;96588.91;4861602;29;20474;-78
2022/04/14 11:23:06;;;;;;;11.70;10.07;;;;;;;19.02;63.80;96584.09;4845899;29;20456;-77
2022/04/14 11:25:42;;;;;;;9.77;8.47;;;;;;;19.41;64.80;96589.66;4849964;29;20805;-78
2022/04/14 11:28:21;;;;;;;10.67;9.63;;;;;;;18.51;64.88;96587.56;4860708;29;20454;-78
2022/04/14 11:31:01;;;;;;;10.10;9.20;;;;;;;19.17;63.68;96591.09;4860475;29;20478;-77
2022/04/14 11:33:28;;;;;;;15.53;9.60;;;;;;;19.01;64.12;96591.38;4851061;29;20540;-77